< < Back
Terminal Aerodrome Forecast


Current Version              Previous Versions:   1  2  3  4  5  6  7  8  9  

Terminal Aerodrome Forecast

729
FTUS42 KMLB 230900 AAA
TAFMCO
TAF AMD
KMCO 230902Z 2309/2406 30005KT P6SM FEW010
      TEMPO 2310/2313 BKN010
     FM231400 29006KT P6SM FEW020=

Latest METAR

892
SAUS70 KWBC 231000 RRM
MTRMCO
METAR KMCO 230953Z 28005KT 10SM FEW014 FEW250 18/16 A2991 RMK AO2 SLP125
T01780161


USA.gov is the U.S. government's official web portal to all federal, state and local government web resources and services.